sensor_id;sensor_type;location;lat;lon;timestamp;P1;durP1;ratioP1;P2;durP2;ratioP2
69979;SDS011;57318;56.232;43.944;2023-09-19T00:00:42;12.05;;;7.18;;
69979;SDS011;57318;56.232;43.944;2023-09-19T00:03:09;14.13;;;7.43;;
69979;SDS011;57318;56.232;43.944;2023-09-19T00:05:37;11.88;;;7.25;;
69979;SDS011;57318;56.232;43.944;2023-09-19T00:08:04;11.52;;;7.43;;
69979;SDS011;57318;56.232;43.944;2023-09-19T00:10:31;11.85;;;7.20;;
69979;SDS011;57318;56.232;43.944;2023-09-19T00:13:01;12.00;;;7.20;;
69979;SDS011;57318;56.232;43.944;2023-09-19T00:15:36;14.90;;;7.40;;
69979;SDS011;57318;56.232;43.944;2023-09-19T00:18:04;13.57;;;7.40;;
69979;SDS011;57318;56.232;43.944;2023-09-19T00:20:37;18.73;;;8.13;;
69979;SDS011;57318;56.232;43.944;2023-09-19T00:23:07;12.80;;;7.32;;
69979;SDS011;57318;56.232;43.944;2023-09-19T00:25:36;13.35;;;7.68;;
69979;SDS011;57318;56.232;43.944;2023-09-19T00:28:03;15.20;;;7.70;;
69979;SDS011;57318;56.232;43.944;2023-09-19T00:30:29;13.73;;;7.65;;
69979;SDS011;57318;56.232;43.944;2023-09-19T00:32:55;19.83;;;8.85;;
69979;SDS011;57318;56.232;43.944;2023-09-19T00:35:22;16.05;;;8.25;;
69979;SDS011;57318;56.232;43.944;2023-09-19T00:37:49;17.70;;;8.77;;
69979;SDS011;57318;56.232;43.944;2023-09-19T00:40:15;18.85;;;8.68;;
69979;SDS011;57318;56.232;43.944;2023-09-19T00:42:42;18.45;;;9.40;;
69979;SDS011;57318;56.232;43.944;2023-09-19T00:45:09;22.13;;;8.98;;
69979;SDS011;57318;56.232;43.944;2023-09-19T00:47:49;21.77;;;8.93;;
69979;SDS011;57318;56.232;43.944;2023-09-19T00:50:17;19.77;;;8.77;;
69979;SDS011;57318;56.232;43.944;2023-09-19T00:52:44;15.82;;;8.27;;
69979;SDS011;57318;56.232;43.944;2023-09-19T00:55:11;18.63;;;8.68;;
69979;SDS011;57318;56.232;43.944;2023-09-19T00:57:39;18.80;;;8.25;;
69979;SDS011;57318;56.232;43.944;2023-09-19T01:00:06;18.60;;;8.68;;
69979;SDS011;57318;56.232;43.944;2023-09-19T01:02:34;23.70;;;9.52;;
69979;SDS011;57318;56.232;43.944;2023-09-19T01:05:01;16.08;;;8.48;;
69979;SDS011;57318;56.232;43.944;2023-09-19T01:07:31;16.52;;;7.85;;
69979;SDS011;57318;56.232;43.944;2023-09-19T01:09:58;15.25;;;7.82;;
69979;SDS011;57318;56.232;43.944;2023-09-19T01:17:57;14.95;;;7.60;;
69979;SDS011;57318;56.232;43.944;2023-09-19T01:32:15;15.68;;;7.43;;
69979;SDS011;57318;56.232;43.944;2023-09-19T01:34:51;17.45;;;8.45;;
69979;SDS011;57318;56.232;43.944;2023-09-19T01:37:23;14.88;;;7.78;;
69979;SDS011;57318;56.232;43.944;2023-09-19T01:39:55;14.15;;;7.82;;
69979;SDS011;57318;56.232;43.944;2023-09-19T01:42:37;14.65;;;8.13;;
69979;SDS011;57318;56.232;43.944;2023-09-19T01:45:45;13.05;;;7.30;;
69979;SDS011;57318;56.232;43.944;2023-09-19T01:51:00;15.52;;;7.93;;
69979;SDS011;57318;56.232;43.944;2023-09-19T01:56:21;13.20;;;7.07;;
69979;SDS011;57318;56.232;43.944;2023-09-19T01:58:51;15.52;;;8.02;;
69979;SDS011;57318;56.232;43.944;2023-09-19T02:01:22;16.15;;;8.23;;
69979;SDS011;57318;56.232;43.944;2023-09-19T02:03:49;16.58;;;9.00;;
69979;SDS011;57318;56.232;43.944;2023-09-19T02:06:16;18.92;;;8.25;;
69979;SDS011;57318;56.232;43.944;2023-09-19T02:08:47;17.17;;;8.80;;
69979;SDS011;57318;56.232;43.944;2023-09-19T02:11:13;16.38;;;8.80;;
69979;SDS011;57318;56.232;43.944;2023-09-19T02:13:40;17.52;;;8.98;;
69979;SDS011;57318;56.232;43.944;2023-09-19T02:16:07;17.52;;;8.77;;
69979;SDS011;57318;56.232;43.944;2023-09-19T02:18:34;19.90;;;9.05;;
69979;SDS011;57318;56.232;43.944;2023-09-19T02:21:01;18.83;;;8.82;;
69979;SDS011;57318;56.232;43.944;2023-09-19T02:23:29;16.70;;;8.60;;
69979;SDS011;57318;56.232;43.944;2023-09-19T02:25:55;16.63;;;9.38;;
69979;SDS011;57318;56.232;43.944;2023-09-19T02:28:30;22.02;;;9.20;;
69979;SDS011;57318;56.232;43.944;2023-09-19T02:33:25;22.73;;;9.43;;
69979;SDS011;57318;56.232;43.944;2023-09-19T02:35:54;28.80;;;9.90;;
69979;SDS011;57318;56.232;43.944;2023-09-19T02:38:23;21.17;;;9.90;;
69979;SDS011;57318;56.232;43.944;2023-09-19T02:40:51;27.75;;;10.27;;
69979;SDS011;57318;56.232;43.944;2023-09-19T02:43:23;22.48;;;10.60;;
69979;SDS011;57318;56.232;43.944;2023-09-19T02:45:49;22.42;;;9.82;;
69979;SDS011;57318;56.232;43.944;2023-09-19T02:48:16;19.75;;;9.18;;
69979;SDS011;57318;56.232;43.944;2023-09-19T02:50:44;26.17;;;9.60;;
69979;SDS011;57318;56.232;43.944;2023-09-19T02:53:10;18.88;;;9.77;;
69979;SDS011;57318;56.232;43.944;2023-09-19T02:55:38;21.02;;;9.48;;
69979;SDS011;57318;56.232;43.944;2023-09-19T02:58:08;22.75;;;9.05;;
69979;SDS011;57318;56.232;43.944;2023-09-19T03:00:37;17.73;;;9.05;;
69979;SDS011;57318;56.232;43.944;2023-09-19T03:05:31;17.30;;;8.38;;
69979;SDS011;57318;56.232;43.944;2023-09-19T03:07:57;19.50;;;7.90;;
69979;SDS011;57318;56.232;43.944;2023-09-19T03:10:25;18.52;;;8.52;;
69979;SDS011;57318;56.232;43.944;2023-09-19T03:16:57;16.05;;;6.57;;
69979;SDS011;57318;56.232;43.944;2023-09-19T03:19:22;12.93;;;7.03;;
69979;SDS011;57318;56.232;43.944;2023-09-19T03:21:48;13.93;;;6.17;;
69979;SDS011;57318;56.232;43.944;2023-09-19T03:24:15;13.07;;;5.70;;
69979;SDS011;57318;56.232;43.944;2023-09-19T03:26:41;11.97;;;5.27;;
69979;SDS011;57318;56.232;43.944;2023-09-19T03:29:07;12.77;;;4.23;;
69979;SDS011;57318;56.232;43.944;2023-09-19T03:31:33;12.93;;;4.75;;
69979;SDS011;57318;56.232;43.944;2023-09-19T03:34:02;7.80;;;4.45;;
69979;SDS011;57318;56.232;43.944;2023-09-19T03:36:29;10.07;;;3.88;;
69979;SDS011;57318;56.232;43.944;2023-09-19T03:38:55;8.15;;;4.07;;
69979;SDS011;57318;56.232;43.944;2023-09-19T03:41:21;7.00;;;3.80;;
69979;SDS011;57318;56.232;43.944;2023-09-19T03:43:46;7.80;;;3.63;;
69979;SDS011;57318;56.232;43.944;2023-09-19T03:46:12;5.60;;;3.63;;
69979;SDS011;57318;56.232;43.944;2023-09-19T03:48:40;6.63;;;3.30;;
69979;SDS011;57318;56.232;43.944;2023-09-19T03:51:06;5.53;;;3.43;;
69979;SDS011;57318;56.232;43.944;2023-09-19T03:53:31;7.03;;;3.40;;
69979;SDS011;57318;56.232;43.944;2023-09-19T03:55:57;9.20;;;4.00;;
69979;SDS011;57318;56.232;43.944;2023-09-19T03:58:23;11.87;;;4.37;;
69979;SDS011;57318;56.232;43.944;2023-09-19T04:00:48;7.80;;;3.97;;
69979;SDS011;57318;56.232;43.944;2023-09-19T04:03:15;7.43;;;4.07;;
69979;SDS011;57318;56.232;43.944;2023-09-19T04:05:46;10.57;;;4.30;;
69979;SDS011;57318;56.232;43.944;2023-09-19T04:08:13;9.13;;;3.75;;
69979;SDS011;57318;56.232;43.944;2023-09-19T04:10:41;16.33;;;3.92;;
69979;SDS011;57318;56.232;43.944;2023-09-19T04:13:08;6.57;;;3.70;;
69979;SDS011;57318;56.232;43.944;2023-09-19T04:15:34;7.27;;;3.63;;
69979;SDS011;57318;56.232;43.944;2023-09-19T04:18:00;6.60;;;3.77;;
69979;SDS011;57318;56.232;43.944;2023-09-19T04:20:26;5.33;;;3.30;;
69979;SDS011;57318;56.232;43.944;2023-09-19T04:22:51;4.10;;;3.60;;
69979;SDS011;57318;56.232;43.944;2023-09-19T04:25:17;5.13;;;3.10;;
69979;SDS011;57318;56.232;43.944;2023-09-19T04:27:45;10.18;;;3.17;;
69979;SDS011;57318;56.232;43.944;2023-09-19T04:30:11;7.90;;;2.70;;
69979;SDS011;57318;56.232;43.944;2023-09-19T04:32:38;9.65;;;2.88;;
69979;SDS011;57318;56.232;43.944;2023-09-19T04:35:08;4.20;;;2.60;;
69979;SDS011;57318;56.232;43.944;2023-09-19T04:37:36;6.35;;;2.70;;
69979;SDS011;57318;56.232;43.944;2023-09-19T04:40:04;4.85;;;2.58;;
69979;SDS011;57318;56.232;43.944;2023-09-19T04:42:32;8.55;;;3.20;;
69979;SDS011;57318;56.232;43.944;2023-09-19T04:44:58;7.67;;;2.70;;
